sensor_id;sensor_type;location;lat;lon;timestamp;temperature;humidity
13074;DHT22;6603;47.066;15.396;2024-02-26T00:01:53;1.30;99.90
13074;DHT22;6603;47.066;15.396;2024-02-26T00:04:19;1.30;99.90
13074;DHT22;6603;47.066;15.396;2024-02-26T00:06:47;1.40;99.90
13074;DHT22;6603;47.066;15.396;2024-02-26T00:09:16;1.60;99.90
13074;DHT22;6603;47.066;15.396;2024-02-26T00:11:42;1.60;99.90
13074;DHT22;6603;47.066;15.396;2024-02-26T00:14:08;1.40;99.90
13074;DHT22;6603;47.066;15.396;2024-02-26T00:16:34;1.60;99.90
13074;DHT22;6603;47.066;15.396;2024-02-26T00:19:00;1.60;99.90
13074;DHT22;6603;47.066;15.396;2024-02-26T00:21:26;1.60;99.90
13074;DHT22;6603;47.066;15.396;2024-02-26T00:23:53;1.70;99.90
13074;DHT22;6603;47.066;15.396;2024-02-26T00:26:19;1.80;99.90
13074;DHT22;6603;47.066;15.396;2024-02-26T00:28:45;1.40;99.90
13074;DHT22;6603;47.066;15.396;2024-02-26T00:31:11;1.40;99.90
13074;DHT22;6603;47.066;15.396;2024-02-26T00:33:37;1.40;99.90
13074;DHT22;6603;47.066;15.396;2024-02-26T00:36:04;1.20;99.90
13074;DHT22;6603;47.066;15.396;2024-02-26T00:38:30;1.40;99.90
13074;DHT22;6603;47.066;15.396;2024-02-26T00:40:56;1.30;99.90
13074;DHT22;6603;47.066;15.396;2024-02-26T00:43:21;1.10;99.90
13074;DHT22;6603;47.066;15.396;2024-02-26T00:45:48;1.00;99.90
13074;DHT22;6603;47.066;15.396;2024-02-26T00:48:13;1.20;99.90
13074;DHT22;6603;47.066;15.396;2024-02-26T00:50:40;1.30;99.90
13074;DHT22;6603;47.066;15.396;2024-02-26T00:53:06;1.40;99.90
13074;DHT22;6603;47.066;15.396;2024-02-26T00:55:31;1.30;99.90
13074;DHT22;6603;47.066;15.396;2024-02-26T00:57:57;1.10;99.90
13074;DHT22;6603;47.066;15.396;2024-02-26T01:00:23;1.00;99.90
13074;DHT22;6603;47.066;15.396;2024-02-26T01:02:49;1.20;99.90
13074;DHT22;6603;47.066;15.396;2024-02-26T01:05:15;1.10;99.90
13074;DHT22;6603;47.066;15.396;2024-02-26T01:07:42;1.00;99.90
13074;DHT22;6603;47.066;15.396;2024-02-26T01:10:08;1.00;99.90
13074;DHT22;6603;47.066;15.396;2024-02-26T01:12:35;1.00;99.90
13074;DHT22;6603;47.066;15.396;2024-02-26T01:15:02;1.00;99.90
13074;DHT22;6603;47.066;15.396;2024-02-26T01:17:31;1.00;99.90
13074;DHT22;6603;47.066;15.396;2024-02-26T01:19:57;1.00;99.90
13074;DHT22;6603;47.066;15.396;2024-02-26T01:22:22;1.10;99.90
13074;DHT22;6603;47.066;15.396;2024-02-26T01:24:48;1.00;99.90
13074;DHT22;6603;47.066;15.396;2024-02-26T01:27:14;1.00;99.90
13074;DHT22;6603;47.066;15.396;2024-02-26T01:29:41;1.00;99.90
13074;DHT22;6603;47.066;15.396;2024-02-26T01:32:07;1.20;99.90
13074;DHT22;6603;47.066;15.396;2024-02-26T01:34:33;1.10;99.90
13074;DHT22;6603;47.066;15.396;2024-02-26T01:37:00;1.10;99.90
13074;DHT22;6603;47.066;15.396;2024-02-26T01:39:26;1.20;99.90
13074;DHT22;6603;47.066;15.396;2024-02-26T01:41:54;1.10;99.90
13074;DHT22;6603;47.066;15.396;2024-02-26T01:44:21;1.00;99.90
13074;DHT22;6603;47.066;15.396;2024-02-26T01:46:47;1.30;99.90
13074;DHT22;6603;47.066;15.396;2024-02-26T01:49:14;1.20;99.90
13074;DHT22;6603;47.066;15.396;2024-02-26T01:51:42;1.30;99.90
13074;DHT22;6603;47.066;15.396;2024-02-26T01:54:09;1.00;99.90
13074;DHT22;6603;47.066;15.396;2024-02-26T01:56:36;1.10;99.90
13074;DHT22;6603;47.066;15.396;2024-02-26T01:59:04;1.00;99.90
13074;DHT22;6603;47.066;15.396;2024-02-26T02:01:32;1.00;99.90
13074;DHT22;6603;47.066;15.396;2024-02-26T02:04:00;0.90;99.90
13074;DHT22;6603;47.066;15.396;2024-02-26T02:06:27;0.80;99.90
13074;DHT22;6603;47.066;15.396;2024-02-26T02:08:55;1.10;99.90
13074;DHT22;6603;47.066;15.396;2024-02-26T02:11:21;1.20;99.90
13074;DHT22;6603;47.066;15.396;2024-02-26T02:13:47;1.30;99.90
13074;DHT22;6603;47.066;15.396;2024-02-26T02:16:13;0.90;99.90
13074;DHT22;6603;47.066;15.396;2024-02-26T02:18:39;1.00;99.90
13074;DHT22;6603;47.066;15.396;2024-02-26T02:21:05;1.10;99.90
13074;DHT22;6603;47.066;15.396;2024-02-26T02:23:31;1.20;99.90
13074;DHT22;6603;47.066;15.396;2024-02-26T02:25:58;1.00;99.90
13074;DHT22;6603;47.066;15.396;2024-02-26T02:28:26;0.90;99.90
13074;DHT22;6603;47.066;15.396;2024-02-26T02:30:53;1.00;99.90
13074;DHT22;6603;47.066;15.396;2024-02-26T02:33:20;0.70;99.90
13074;DHT22;6603;47.066;15.396;2024-02-26T02:35:46;0.80;99.90
13074;DHT22;6603;47.066;15.396;2024-02-26T02:38:11;1.00;99.90
13074;DHT22;6603;47.066;15.396;2024-02-26T02:40:37;0.90;99.90
13074;DHT22;6603;47.066;15.396;2024-02-26T02:43:03;1.00;99.90
13074;DHT22;6603;47.066;15.396;2024-02-26T02:45:30;1.00;99.90
13074;DHT22;6603;47.066;15.396;2024-02-26T02:47:56;1.00;99.90
13074;DHT22;6603;47.066;15.396;2024-02-26T02:50:22;1.00;99.90
13074;DHT22;6603;47.066;15.396;2024-02-26T02:52:48;0.80;99.90
13074;DHT22;6603;47.066;15.396;2024-02-26T02:55:16;0.90;99.90
13074;DHT22;6603;47.066;15.396;2024-02-26T02:57:42;0.80;99.90
13074;DHT22;6603;47.066;15.396;2024-02-26T03:00:12;0.70;99.90
13074;DHT22;6603;47.066;15.396;2024-02-26T03:02:38;0.90;99.90
13074;DHT22;6603;47.066;15.396;2024-02-26T03:05:04;0.90;99.90
13074;DHT22;6603;47.066;15.396;2024-02-26T03:07:30;0.80;99.90
13074;DHT22;6603;47.066;15.396;2024-02-26T03:09:56;0.60;99.90
13074;DHT22;6603;47.066;15.396;2024-02-26T03:12:22;0.60;99.90
13074;DHT22;6603;47.066;15.396;2024-02-26T03:14:48;0.50;99.90
13074;DHT22;6603;47.066;15.396;2024-02-26T03:17:15;0.50;99.90
13074;DHT22;6603;47.066;15.396;2024-02-26T03:19:41;0.40;99.90
13074;DHT22;6603;47.066;15.396;2024-02-26T03:22:07;0.40;99.90
13074;DHT22;6603;47.066;15.396;2024-02-26T03:24:33;0.70;99.90
13074;DHT22;6603;47.066;15.396;2024-02-26T03:26:58;0.50;99.90
13074;DHT22;6603;47.066;15.396;2024-02-26T03:29:24;0.30;99.90
13074;DHT22;6603;47.066;15.396;2024-02-26T03:31:50;0.40;99.90
13074;DHT22;6603;47.066;15.396;2024-02-26T03:34:16;0.30;99.90
13074;DHT22;6603;47.066;15.396;2024-02-26T03:36:44;0.30;99.90
13074;DHT22;6603;47.066;15.396;2024-02-26T03:39:10;0.40;99.90
13074;DHT22;6603;47.066;15.396;2024-02-26T03:41:36;0.30;99.90
13074;DHT22;6603;47.066;15.396;2024-02-26T03:44:02;0.30;99.90
13074;DHT22;6603;47.066;15.396;2024-02-26T03:46:28;0.30;99.90
13074;DHT22;6603;47.066;15.396;2024-02-26T03:48:54;0.10;99.90
13074;DHT22;6603;47.066;15.396;2024-02-26T03:51:20;0.20;99.90
13074;DHT22;6603;47.066;15.396;2024-02-26T03:53:45;0.40;99.90
13074;DHT22;6603;47.066;15.396;2024-02-26T03:56:12;0.20;99.90
13074;DHT22;6603;47.066;15.396;2024-02-26T03:58:39;0.10;99.90
13074;DHT22;6603;47.066;15.396;2024-02-26T04:01:08;0.30;99.90
13074;DHT22;6603;47.066;15.396;2024-02-26T04:03:35;0.20;99.90
13074;DHT22;6603;47.066;15.396;2024-02-26T04:06:02;0.00;99.90
13074;DHT22;6603;47.066;15.396;2024-02-26T04:08:28;0.00;99.90
13074;DHT22;6603;47.066;15.396;2024-02-26T04:10:54;0.20;99.90
13074;DHT22;6603;47.066;15.396;2024-02-26T04:13:20;0.30;99.90
13074;DHT22;6603;47.066;15.396;2024-02-26T04:15:46;0.20;99.90
13074;DHT22;6603;47.066;15.396;2024-02-26T04:18:13;0.30;99.90
13074;DHT22;6603;47.066;15.396;2024-02-26T04:20:40;0.30;99.90
13074;DHT22;6603;47.066;15.396;2024-02-26T04:23:08;0.30;99.90
13074;DHT22;6603;47.066;15.396;2024-02-26T04:25:34;0.10;99.90
13074;DHT22;6603;47.066;15.396;2024-02-26T04:28:00;0.20;99.90
13074;DHT22;6603;47.066;15.396;2024-02-26T04:30:25;0.30;99.90
13074;DHT22;6603;47.066;15.396;2024-02-26T04:32:52;0.40;99.90
13074;DHT22;6603;47.066;15.396;2024-02-26T04:35:17;0.20;99.90
13074;DHT22;6603;47.066;15.396;2024-02-26T04:37:43;0.40;99.90
13074;DHT22;6603;47.066;15.396;2024-02-26T04:40:10;0.40;99.90
13074;DHT22;6603;47.066;15.396;2024-02-26T04:42:36;0.40;99.90
13074;DHT22;6603;47.066;15.396;2024-02-26T04:45:02;0.40;99.90
13074;DHT22;6603;47.066;15.396;2024-02-26T04:47:28;0.40;99.90
13074;DHT22;6603;47.066;15.396;2024-02-26T04:49:55;0.40;99.90
13074;DHT22;6603;47.066;15.396;2024-02-26T04:52:22;0.30;99.90
13074;DHT22;6603;47.066;15.396;2024-02-26T04:54:47;0.30;99.90
13074;DHT22;6603;47.066;15.396;2024-02-26T04:57:13;0.30;99.90
13074;DHT22;6603;47.066;15.396;2024-02-26T04:59:39;-0.10;99.90
13074;DHT22;6603;47.066;15.396;2024-02-26T05:02:06;0.10;99.90
13074;DHT22;6603;47.066;15.396;2024-02-26T05:04:32;0.00;99.90
13074;DHT22;6603;47.066;15.396;2024-02-26T05:06:58;-0.10;99.90
13074;DHT22;6603;47.066;15.396;2024-02-26T05:09:24;0.10;99.90
13074;DHT22;6603;47.066;15.396;2024-02-26T05:11:50;0.30;99.90
13074;DHT22;6603;47.066;15.396;2024-02-26T05:14:15;0.00;99.90
13074;DHT22;6603;47.066;15.396;2024-02-26T05:16:41;0.10;99.90
13074;DHT22;6603;47.066;15.396;2024-02-26T05:19:07;0.00;99.90
13074;DHT22;6603;47.066;15.396;2024-02-26T05:21:33;0.00;99.90
13074;DHT22;6603;47.066;15.396;2024-02-26T05:24:00;0.00;99.90
13074;DHT22;6603;47.066;15.396;2024-02-26T05:26:26;0.20;99.90
13074;DHT22;6603;47.066;15.396;2024-02-26T05:28:52;-0.30;99.90
13074;DHT22;6603;47.066;15.396;2024-02-26T05:31:19;-0.10;99.90
13074;DHT22;6603;47.066;15.396;2024-02-26T05:33:44;0.00;99.90
13074;DHT22;6603;47.066;15.396;2024-02-26T05:36:11;0.10;99.90
13074;DHT22;6603;47.066;15.396;2024-02-26T05:38:43;0.10;99.90
13074;DHT22;6603;47.066;15.396;2024-02-26T05:41:12;0.20;99.90
13074;DHT22;6603;47.066;15.396;2024-02-26T05:43:38;0.00;99.90
13074;DHT22;6603;47.066;15.396;2024-02-26T05:46:04;0.10;99.90
13074;DHT22;6603;47.066;15.396;2024-02-26T05:48:30;0.20;99.90
13074;DHT22;6603;47.066;15.396;2024-02-26T05:50:57;0.10;99.90
13074;DHT22;6603;47.066;15.396;2024-02-26T05:53:23;0.00;99.90
13074;DHT22;6603;47.066;15.396;2024-02-26T05:55:49;0.00;99.90
13074;DHT22;6603;47.066;15.396;2024-02-26T05:58:15;-0.20;99.90
13074;DHT22;6603;47.066;15.396;2024-02-26T06:00:41;0.00;99.90
13074;DHT22;6603;47.066;15.396;2024-02-26T06:03:06;0.10;99.90
13074;DHT22;6603;47.066;15.396;2024-02-26T06:05:32;0.30;99.90
13074;DHT22;6603;47.066;15.396;2024-02-26T06:07:58;0.40;99.90
13074;DHT22;6603;47.066;15.396;2024-02-26T06:10:24;0.10;99.90
13074;DHT22;6603;47.066;15.396;2024-02-26T06:12:50;0.10;99.90
13074;DHT22;6603;47.066;15.396;2024-02-26T06:15:16;0.10;99.90
13074;DHT22;6603;47.066;15.396;2024-02-26T06:17:42;0.30;99.90
13074;DHT22;6603;47.066;15.396;2024-02-26T06:20:08;0.30;99.90
13074;DHT22;6603;47.066;15.396;2024-02-26T06:22:40;0.50;99.90
13074;DHT22;6603;47.066;15.396;2024-02-26T06:25:07;0.20;99.90
13074;DHT22;6603;47.066;15.396;2024-02-26T06:27:33;0.40;99.90
13074;DHT22;6603;47.066;15.396;2024-02-26T06:29:58;0.40;99.90
13074;DHT22;6603;47.066;15.396;2024-02-26T06:32:24;0.40;99.90
13074;DHT22;6603;47.066;15.396;2024-02-26T06:34:52;0.60;99.90
13074;DHT22;6603;47.066;15.396;2024-02-26T06:37:18;0.70;99.90
13074;DHT22;6603;47.066;15.396;2024-02-26T06:39:43;0.70;99.90
13074;DHT22;6603;47.066;15.396;2024-02-26T06:42:09;0.70;99.90
13074;DHT22;6603;47.066;15.396;2024-02-26T06:44:35;0.70;99.90
13074;DHT22;6603;47.066;15.396;2024-02-26T06:47:01;0.80;99.90
13074;DHT22;6603;47.066;15.396;2024-02-26T06:49:27;0.90;99.90
13074;DHT22;6603;47.066;15.396;2024-02-26T06:51:53;1.00;99.90
13074;DHT22;6603;47.066;15.396;2024-02-26T06:54:19;1.00;99.90
13074;DHT22;6603;47.066;15.396;2024-02-26T06:56:46;1.00;99.90
13074;DHT22;6603;47.066;15.396;2024-02-26T06:59:12;1.10;99.90
13074;DHT22;6603;47.066;15.396;2024-02-26T07:01:40;1.30;99.90
13074;DHT22;6603;47.066;15.396;2024-02-26T07:04:07;1.50;99.90
13074;DHT22;6603;47.066;15.396;2024-02-26T07:06:32;1.60;99.90
13074;DHT22;6603;47.066;15.396;2024-02-26T07:08:58;1.60;99.90
13074;DHT22;6603;47.066;15.396;2024-02-26T07:11:24;1.70;99.90
13074;DHT22;6603;47.066;15.396;2024-02-26T07:13:50;1.80;99.90
13074;DHT22;6603;47.066;15.396;2024-02-26T07:16:16;1.90;99.90
13074;DHT22;6603;47.066;15.396;2024-02-26T07:18:42;2.00;99.90
13074;DHT22;6603;47.066;15.396;2024-02-26T07:21:14;2.10;99.90
13074;DHT22;6603;47.066;15.396;2024-02-26T07:23:40;2.10;99.90
13074;DHT22;6603;47.066;15.396;2024-02-26T07:26:06;2.10;99.90
13074;DHT22;6603;47.066;15.396;2024-02-26T07:28:34;2.20;99.90
13074;DHT22;6603;47.066;15.396;2024-02-26T07:30:59;2.30;99.90
13074;DHT22;6603;47.066;15.396;2024-02-26T07:33:25;2.50;99.90
13074;DHT22;6603;47.066;15.396;2024-02-26T07:35:51;2.50;99.90
13074;DHT22;6603;47.066;15.396;2024-02-26T07:38:19;2.60;99.90
13074;DHT22;6603;47.066;15.396;2024-02-26T07:40:45;2.60;99.90
13074;DHT22;6603;47.066;15.396;2024-02-26T07:43:11;2.70;99.90
13074;DHT22;6603;47.066;15.396;2024-02-26T07:45:37;2.70;99.90
13074;DHT22;6603;47.066;15.396;2024-02-26T07:48:03;2.90;99.90
13074;DHT22;6603;47.066;15.396;2024-02-26T07:50:29;3.00;99.90
13074;DHT22;6603;47.066;15.396;2024-02-26T07:52:56;3.10;99.90
13074;DHT22;6603;47.066;15.396;2024-02-26T07:55:22;3.20;99.90
13074;DHT22;6603;47.066;15.396;2024-02-26T07:57:48;3.50;99.90
13074;DHT22;6603;47.066;15.396;2024-02-26T08:00:15;3.60;99.90
13074;DHT22;6603;47.066;15.396;2024-02-26T08:02:44;3.60;99.90
13074;DHT22;6603;47.066;15.396;2024-02-26T08:05:10;3.70;99.90
13074;DHT22;6603;47.066;15.396;2024-02-26T08:07:36;3.80;99.90
13074;DHT22;6603;47.066;15.396;2024-02-26T08:10:02;4.00;99.90
13074;DHT22;6603;47.066;15.396;2024-02-26T08:12:28;4.10;99.90
13074;DHT22;6603;47.066;15.396;2024-02-26T08:14:54;4.20;99.90
13074;DHT22;6603;47.066;15.396;2024-02-26T08:17:21;4.30;99.90
13074;DHT22;6603;47.066;15.396;2024-02-26T08:19:47;4.40;99.90
13074;DHT22;6603;47.066;15.396;2024-02-26T08:22:13;4.60;99.90
13074;DHT22;6603;47.066;15.396;2024-02-26T08:24:42;4.70;99.90
13074;DHT22;6603;47.066;15.396;2024-02-26T08:27:08;4.80;99.90
13074;DHT22;6603;47.066;15.396;2024-02-26T08:29:34;4.90;99.90
13074;DHT22;6603;47.066;15.396;2024-02-26T08:32:00;5.00;99.90
13074;DHT22;6603;47.066;15.396;2024-02-26T08:34:26;5.10;99.90
13074;DHT22;6603;47.066;15.396;2024-02-26T08:36:52;5.20;99.90
13074;DHT22;6603;47.066;15.396;2024-02-26T08:39:18;5.40;99.90
13074;DHT22;6603;47.066;15.396;2024-02-26T08:41:44;5.50;99.90
13074;DHT22;6603;47.066;15.396;2024-02-26T08:44:11;5.60;99.90
13074;DHT22;6603;47.066;15.396;2024-02-26T08:46:37;5.70;99.90
13074;DHT22;6603;47.066;15.396;2024-02-26T08:49:03;5.80;96.20
13074;DHT22;6603;47.066;15.396;2024-02-26T08:51:29;5.90;64.10
13074;DHT22;6603;47.066;15.396;2024-02-26T08:53:56;5.90;38.00
13074;DHT22;6603;47.066;15.396;2024-02-26T08:56:21;6.00;53.60
13074;DHT22;6603;47.066;15.396;2024-02-26T08:58:47;6.10;42.60
13074;DHT22;6603;47.066;15.396;2024-02-26T09:01:19;6.10;34.80
13074;DHT22;6603;47.066;15.396;2024-02-26T09:03:45;6.20;41.50
13074;DHT22;6603;47.066;15.396;2024-02-26T09:06:11;6.40;25.50
13074;DHT22;6603;47.066;15.396;2024-02-26T09:08:40;6.40;9.80
13074;DHT22;6603;47.066;15.396;2024-02-26T09:11:06;6.60;26.40
13074;DHT22;6603;47.066;15.396;2024-02-26T09:13:32;6.70;5.60
13074;DHT22;6603;47.066;15.396;2024-02-26T09:15:58;6.90;1.00
13074;DHT22;6603;47.066;15.396;2024-02-26T09:18:24;6.90;1.00
13074;DHT22;6603;47.066;15.396;2024-02-26T09:20:50;7.10;1.00
13074;DHT22;6603;47.066;15.396;2024-02-26T09:23:16;7.20;1.00
13074;DHT22;6603;47.066;15.396;2024-02-26T09:25:42;7.40;1.00
13074;DHT22;6603;47.066;15.396;2024-02-26T09:28:08;7.50;1.00
13074;DHT22;6603;47.066;15.396;2024-02-26T09:30:34;7.60;1.00
13074;DHT22;6603;47.066;15.396;2024-02-26T09:32:59;7.50;1.00
13074;DHT22;6603;47.066;15.396;2024-02-26T09:35:25;7.60;1.00
13074;DHT22;6603;47.066;15.396;2024-02-26T09:37:52;7.60;1.00
13074;DHT22;6603;47.066;15.396;2024-02-26T09:40:19;7.70;1.00
13074;DHT22;6603;47.066;15.396;2024-02-26T09:42:45;7.70;1.00
13074;DHT22;6603;47.066;15.396;2024-02-26T09:45:18;8.00;1.00
13074;DHT22;6603;47.066;15.396;2024-02-26T09:47:48;8.20;1.00
13074;DHT22;6603;47.066;15.396;2024-02-26T09:50:14;8.20;1.00
13074;DHT22;6603;47.066;15.396;2024-02-26T09:52:43;8.30;1.00
13074;DHT22;6603;47.066;15.396;2024-02-26T09:55:10;8.20;1.00
13074;DHT22;6603;47.066;15.396;2024-02-26T09:57:37;8.40;1.00
13074;DHT22;6603;47.066;15.396;2024-02-26T10:00:04;8.40;1.00
13074;DHT22;6603;47.066;15.396;2024-02-26T10:02:36;8.70;1.00
13074;DHT22;6603;47.066;15.396;2024-02-26T10:05:05;8.50;1.00
13074;DHT22;6603;47.066;15.396;2024-02-26T10:07:33;8.50;1.00
13074;DHT22;6603;47.066;15.396;2024-02-26T10:10:01;8.80;1.00
13074;DHT22;6603;47.066;15.396;2024-02-26T10:12:28;8.80;1.00
13074;DHT22;6603;47.066;15.396;2024-02-26T10:14:54;9.00;1.00
13074;DHT22;6603;47.066;15.396;2024-02-26T10:17:20;9.10;1.00
13074;DHT22;6603;47.066;15.396;2024-02-26T10:19:47;9.20;99.90
13074;DHT22;6603;47.066;15.396;2024-02-26T10:22:12;9.30;1.00
13074;DHT22;6603;47.066;15.396;2024-02-26T10:24:38;9.40;1.00
13074;DHT22;6603;47.066;15.396;2024-02-26T10:27:05;9.40;99.90
13074;DHT22;6603;47.066;15.396;2024-02-26T10:29:37;9.40;1.00
13074;DHT22;6603;47.066;15.396;2024-02-26T10:32:04;9.60;1.00
13074;DHT22;6603;47.066;15.396;2024-02-26T10:34:31;9.80;1.00
13074;DHT22;6603;47.066;15.396;2024-02-26T10:36:57;9.90;55.00
13074;DHT22;6603;47.066;15.396;2024-02-26T10:39:22;10.00;1.00
13074;DHT22;6603;47.066;15.396;2024-02-26T10:41:49;10.10;1.00
13074;DHT22;6603;47.066;15.396;2024-02-26T10:44:15;10.20;1.00
13074;DHT22;6603;47.066;15.396;2024-02-26T10:46:41;10.30;23.10
13074;DHT22;6603;47.066;15.396;2024-02-26T10:49:14;10.30;1.00
13074;DHT22;6603;47.066;15.396;2024-02-26T10:51:44;10.30;1.00
13074;DHT22;6603;47.066;15.396;2024-02-26T10:54:15;10.50;1.00
13074;DHT22;6603;47.066;15.396;2024-02-26T10:56:42;10.70;1.00
13074;DHT22;6603;47.066;15.396;2024-02-26T10:59:12;10.60;1.00
13074;DHT22;6603;47.066;15.396;2024-02-26T11:01:39;10.70;99.90
13074;DHT22;6603;47.066;15.396;2024-02-26T11:04:08;10.60;21.80
13074;DHT22;6603;47.066;15.396;2024-02-26T11:06:35;10.70;1.00
13074;DHT22;6603;47.066;15.396;2024-02-26T11:09:02;11.00;99.90
13074;DHT22;6603;47.066;15.396;2024-02-26T11:11:31;11.10;99.90
13074;DHT22;6603;47.066;15.396;2024-02-26T11:14:01;11.20;99.90
13074;DHT22;6603;47.066;15.396;2024-02-26T11:16:29;11.20;99.90
13074;DHT22;6603;47.066;15.396;2024-02-26T11:18:55;11.10;99.90
13074;DHT22;6603;47.066;15.396;2024-02-26T11:21:23;11.10;99.90
13074;DHT22;6603;47.066;15.396;2024-02-26T11:24:14;10.90;99.90
13074;DHT22;6603;47.066;15.396;2024-02-26T11:26:49;10.80;99.90
13074;DHT22;6603;47.066;15.396;2024-02-26T11:29:21;10.90;99.90
13074;DHT22;6603;47.066;15.396;2024-02-26T11:31:48;11.10;99.90
13074;DHT22;6603;47.066;15.396;2024-02-26T11:34:14;11.30;79.70
13074;DHT22;6603;47.066;15.396;2024-02-26T11:36:40;11.50;99.90
13074;DHT22;6603;47.066;15.396;2024-02-26T11:39:06;11.70;1.00
13074;DHT22;6603;47.066;15.396;2024-02-26T11:41:32;11.50;1.00
13074;DHT22;6603;47.066;15.396;2024-02-26T11:44:01;11.50;1.00
13074;DHT22;6603;47.066;15.396;2024-02-26T11:46:31;11.50;1.00
13074;DHT22;6603;47.066;15.396;2024-02-26T11:51:55;12.30;1.00
13074;DHT22;6603;47.066;15.396;2024-02-26T11:54:40;12.30;1.00
13074;DHT22;6603;47.066;15.396;2024-02-26T12:00:11;12.10;1.00
13074;DHT22;6603;47.066;15.396;2024-02-26T12:02:45;11.80;99.90
13074;DHT22;6603;47.066;15.396;2024-02-26T12:05:12;11.70;99.90
13074;DHT22;6603;47.066;15.396;2024-02-26T12:08:08;11.60;99.90
13074;DHT22;6603;47.066;15.396;2024-02-26T12:10:36;11.60;1.00
13074;DHT22;6603;47.066;15.396;2024-02-26T12:15:43;11.60;1.00
13074;DHT22;6603;47.066;15.396;2024-02-26T12:18:19;11.70;1.00
13074;DHT22;6603;47.066;15.396;2024-02-26T12:20:46;11.70;1.00
13074;DHT22;6603;47.066;15.396;2024-02-26T12:23:16;11.80;1.00
13074;DHT22;6603;47.066;15.396;2024-02-26T12:25:45;11.70;1.00
13074;DHT22;6603;47.066;15.396;2024-02-26T12:28:14;11.90;1.00
13074;DHT22;6603;47.066;15.396;2024-02-26T12:30:40;11.90;1.00
13074;DHT22;6603;47.066;15.396;2024-02-26T12:33:06;12.00;1.00
13074;DHT22;6603;47.066;15.396;2024-02-26T12:35:35;12.10;1.00
13074;DHT22;6603;47.066;15.396;2024-02-26T12:38:01;12.30;53.80
13074;DHT22;6603;47.066;15.396;2024-02-26T12:40:30;12.20;1.00
13074;DHT22;6603;47.066;15.396;2024-02-26T12:42:56;12.60;1.00
13074;DHT22;6603;47.066;15.396;2024-02-26T12:45:25;12.80;1.00
13074;DHT22;6603;47.066;15.396;2024-02-26T12:47:51;13.30;1.00
13074;DHT22;6603;47.066;15.396;2024-02-26T12:50:18;13.40;99.90
13074;DHT22;6603;47.066;15.396;2024-02-26T12:52:46;13.30;99.90
13074;DHT22;6603;47.066;15.396;2024-02-26T12:55:16;13.20;99.90
13074;DHT22;6603;47.066;15.396;2024-02-26T12:57:44;13.20;99.90
13074;DHT22;6603;47.066;15.396;2024-02-26T13:00:14;13.20;99.90
13074;DHT22;6603;47.066;15.396;2024-02-26T13:02:41;13.40;99.90
13074;DHT22;6603;47.066;15.396;2024-02-26T13:05:13;13.20;99.90
13074;DHT22;6603;47.066;15.396;2024-02-26T13:07:44;13.30;99.90
13074;DHT22;6603;47.066;15.396;2024-02-26T13:10:11;13.30;99.90
13074;DHT22;6603;47.066;15.396;2024-02-26T13:12:47;13.30;99.90
13074;DHT22;6603;47.066;15.396;2024-02-26T13:15:17;13.30;99.90
13074;DHT22;6603;47.066;15.396;2024-02-26T13:17:47;13.30;99.90
13074;DHT22;6603;47.066;15.396;2024-02-26T13:20:25;13.40;99.90
13074;DHT22;6603;47.066;15.396;2024-02-26T13:22:51;13.50;99.90
13074;DHT22;6603;47.066;15.396;2024-02-26T13:25:25;13.50;99.90
13074;DHT22;6603;47.066;15.396;2024-02-26T13:27:51;13.50;99.90
13074;DHT22;6603;47.066;15.396;2024-02-26T13:30:17;13.20;99.90
13074;DHT22;6603;47.066;15.396;2024-02-26T13:32:44;13.10;99.90
13074;DHT22;6603;47.066;15.396;2024-02-26T13:35:13;13.10;99.90
13074;DHT22;6603;47.066;15.396;2024-02-26T13:37:40;13.10;99.90
13074;DHT22;6603;47.066;15.396;2024-02-26T13:40:10;12.90;99.90
13074;DHT22;6603;47.066;15.396;2024-02-26T13:42:38;12.80;99.90
13074;DHT22;6603;47.066;15.396;2024-02-26T13:45:05;12.70;99.90
13074;DHT22;6603;47.066;15.396;2024-02-26T13:47:33;12.70;99.90
13074;DHT22;6603;47.066;15.396;2024-02-26T13:49:59;12.50;99.90
13074;DHT22;6603;47.066;15.396;2024-02-26T13:52:26;12.70;99.90
13074;DHT22;6603;47.066;15.396;2024-02-26T13:54:53;12.60;99.90
13074;DHT22;6603;47.066;15.396;2024-02-26T13:57:19;12.60;99.90
13074;DHT22;6603;47.066;15.396;2024-02-26T13:59:46;12.60;99.90
13074;DHT22;6603;47.066;15.396;2024-02-26T14:02:12;12.50;99.90
13074;DHT22;6603;47.066;15.396;2024-02-26T14:04:38;12.50;99.90
13074;DHT22;6603;47.066;15.396;2024-02-26T14:07:04;12.40;99.90
13074;DHT22;6603;47.066;15.396;2024-02-26T14:09:31;12.30;99.90
13074;DHT22;6603;47.066;15.396;2024-02-26T14:11:59;12.30;99.90
13074;DHT22;6603;47.066;15.396;2024-02-26T14:14:27;12.20;99.90
13074;DHT22;6603;47.066;15.396;2024-02-26T14:16:53;12.10;99.90
13074;DHT22;6603;47.066;15.396;2024-02-26T14:19:19;12.10;99.90
13074;DHT22;6603;47.066;15.396;2024-02-26T14:21:45;11.90;99.90
13074;DHT22;6603;47.066;15.396;2024-02-26T14:24:11;12.00;99.90
13074;DHT22;6603;47.066;15.396;2024-02-26T14:26:37;11.90;99.90
13074;DHT22;6603;47.066;15.396;2024-02-26T14:29:03;11.90;99.90
13074;DHT22;6603;47.066;15.396;2024-02-26T14:31:29;11.90;99.90
13074;DHT22;6603;47.066;15.396;2024-02-26T14:33:55;11.90;99.90
13074;DHT22;6603;47.066;15.396;2024-02-26T14:36:21;11.90;99.90
13074;DHT22;6603;47.066;15.396;2024-02-26T14:38:48;11.90;7.30
13074;DHT22;6603;47.066;15.396;2024-02-26T14:41:14;12.00;15.70
13074;DHT22;6603;47.066;15.396;2024-02-26T14:43:40;11.90;1.90
13074;DHT22;6603;47.066;15.396;2024-02-26T14:46:06;11.90;1.00
13074;DHT22;6603;47.066;15.396;2024-02-26T14:48:32;11.80;1.00
13074;DHT22;6603;47.066;15.396;2024-02-26T14:50:59;11.80;77.30
13074;DHT22;6603;47.066;15.396;2024-02-26T14:53:26;11.80;30.20
13074;DHT22;6603;47.066;15.396;2024-02-26T14:55:52;11.70;1.00
13074;DHT22;6603;47.066;15.396;2024-02-26T14:58:18;11.70;1.00
13074;DHT22;6603;47.066;15.396;2024-02-26T15:00:45;11.60;16.50
13074;DHT22;6603;47.066;15.396;2024-02-26T15:03:11;11.60;50.40
13074;DHT22;6603;47.066;15.396;2024-02-26T15:05:36;11.50;99.90
13074;DHT22;6603;47.066;15.396;2024-02-26T15:08:03;11.50;99.90
13074;DHT22;6603;47.066;15.396;2024-02-26T15:10:29;11.40;99.90
13074;DHT22;6603;47.066;15.396;2024-02-26T15:12:54;11.30;99.90
13074;DHT22;6603;47.066;15.396;2024-02-26T15:15:22;11.30;99.90
13074;DHT22;6603;47.066;15.396;2024-02-26T15:17:48;11.20;1.00
13074;DHT22;6603;47.066;15.396;2024-02-26T15:20:17;11.10;1.00
13074;DHT22;6603;47.066;15.396;2024-02-26T15:22:44;11.10;1.00
13074;DHT22;6603;47.066;15.396;2024-02-26T15:25:10;11.00;1.00
13074;DHT22;6603;47.066;15.396;2024-02-26T15:27:35;10.90;1.00
13074;DHT22;6603;47.066;15.396;2024-02-26T15:30:02;10.80;1.00
13074;DHT22;6603;47.066;15.396;2024-02-26T15:32:28;10.80;1.00
13074;DHT22;6603;47.066;15.396;2024-02-26T15:34:55;10.70;1.00
13074;DHT22;6603;47.066;15.396;2024-02-26T15:37:21;10.70;1.00
13074;DHT22;6603;47.066;15.396;2024-02-26T15:39:48;10.70;1.00
13074;DHT22;6603;47.066;15.396;2024-02-26T15:42:14;10.60;1.00
13074;DHT22;6603;47.066;15.396;2024-02-26T15:44:40;10.60;1.00
13074;DHT22;6603;47.066;15.396;2024-02-26T15:47:06;10.60;1.00
13074;DHT22;6603;47.066;15.396;2024-02-26T15:49:33;10.50;1.00
13074;DHT22;6603;47.066;15.396;2024-02-26T15:51:59;10.40;89.20